Time;durP1;ratioP1;P1;durP2;ratioP2;P2;SDS_P1;SDS_P2;PMS_P1;PMS_P2;Temp;Humidity;BMP_temperature;BMP_pressure;BME280_temperature;BME280_humidity;BME280_pressure;Samples;Min_cycle;Max_cycle;Signal;HPM_P1;HPM_P2
2021/10/06 00:01:41;;;;;;;4.87;2.10;;;12.90;99.90;;;;;;5028552;28;20271;-40
2021/10/06 00:04:06;;;;;;;2.83;1.90;;;12.90;99.90;;;;;;5021777;28;20191;-41
2021/10/06 00:06:33;;;;;;;3.83;2.20;;;12.80;99.90;;;;;;5023346;28;20190;-40
2021/10/06 00:08:59;;;;;;;3.80;1.87;;;12.80;99.90;;;;;;5028463;28;20209;-39
2021/10/06 00:11:25;;;;;;;2.77;2.30;;;12.80;99.90;;;;;;5028379;28;20967;-40
2021/10/06 00:13:51;;;;;;;4.10;2.20;;;12.80;99.90;;;;;;5027765;28;20804;-39
2021/10/06 00:16:18;;;;;;;2.20;1.63;;;12.80;99.90;;;;;;5028626;28;20899;-40
2021/10/06 00:18:44;;;;;;;4.03;1.80;;;12.80;99.90;;;;;;5025388;28;20432;-39
2021/10/06 00:21:10;;;;;;;2.50;1.53;;;12.80;99.90;;;;;;5024007;28;20453;-40
2021/10/06 00:23:36;;;;;;;3.97;2.00;;;12.80;99.90;;;;;;5027445;28;20418;-40
2021/10/06 00:26:03;;;;;;;2.97;2.00;;;12.70;99.90;;;;;;5028103;28;20516;-40
2021/10/06 00:28:29;;;;;;;4.37;1.70;;;12.70;99.90;;;;;;5028206;28;20187;-39
2021/10/06 00:30:56;;;;;;;9.90;2.90;;;12.70;99.90;;;;;;5028256;28;20451;-39
2021/10/06 00:33:25;;;;;;;6.60;2.23;;;12.70;99.90;;;;;;5027000;28;20202;-40
2021/10/06 00:35:51;;;;;;;2.23;1.63;;;12.70;99.90;;;;;;5017686;28;20433;-40
2021/10/06 00:38:17;;;;;;;3.00;1.77;;;12.60;99.90;;;;;;5027793;28;20417;-43
2021/10/06 00:40:43;;;;;;;3.00;1.53;;;12.60;99.90;;;;;;5027921;28;20506;-40
2021/10/06 00:43:09;;;;;;;3.03;1.97;;;12.60;99.90;;;;;;5027175;28;20417;-39
2021/10/06 00:45:35;;;;;;;5.47;2.17;;;12.50;99.90;;;;;;5027849;28;20186;-40
2021/10/06 00:48:01;;;;;;;4.27;1.43;;;12.60;99.90;;;;;;5026758;28;20792;-39
2021/10/06 00:50:27;;;;;;;2.20;1.67;;;12.60;99.90;;;;;;5014770;28;20401;-40
2021/10/06 00:52:52;;;;;;;5.40;1.77;;;12.50;99.90;;;;;;5026921;28;20256;-39
2021/10/06 00:55:18;;;;;;;5.23;1.47;;;12.50;99.90;;;;;;5027516;28;20218;-40
2021/10/06 00:57:44;;;;;;;4.30;1.40;;;12.50;99.90;;;;;;5027448;28;20198;-39
2021/10/06 01:00:11;;;;;;;2.97;1.73;;;12.50;99.90;;;;;;5027151;28;20213;-40
2021/10/06 01:02:36;;;;;;;2.97;1.43;;;12.50;99.90;;;;;;5026904;28;20484;-40
2021/10/06 01:05:08;;;;;;;4.10;1.97;;;12.50;99.90;;;;;;5018206;28;20801;-39
2021/10/06 01:07:34;;;;;;;4.83;1.90;;;12.40;99.90;;;;;;5027424;28;20185;-39
2021/10/06 01:10:08;;;;;;;4.00;2.10;;;12.40;99.90;;;;;;5027098;28;20425;-39
2021/10/06 01:12:34;;;;;;;2.30;1.80;;;12.40;99.90;;;;;;5027017;28;20417;-40
2021/10/06 01:15:01;;;;;;;5.10;2.03;;;12.40;99.90;;;;;;5025029;28;20452;-40
2021/10/06 01:17:27;;;;;;;2.50;1.57;;;12.30;99.90;;;;;;5027321;28;20436;-42
2021/10/06 01:19:53;;;;;;;2.13;1.43;;;12.40;99.90;;;;;;5024341;28;20773;-40
2021/10/06 01:22:19;;;;;;;2.47;1.40;;;12.30;99.90;;;;;;5025986;28;20882;-39
2021/10/06 01:24:44;;;;;;;3.17;1.67;;;12.40;99.90;;;;;;5025874;28;20400;-40
2021/10/06 01:27:10;;;;;;;6.10;2.00;;;12.30;99.90;;;;;;5027136;28;20210;-39
2021/10/06 01:29:37;;;;;;;4.13;1.87;;;12.40;99.90;;;;;;5026656;28;20199;-40
2021/10/06 01:32:11;;;;;;;2.50;1.60;;;12.30;99.90;;;;;;5026811;28;20464;-39
2021/10/06 01:34:37;;;;;;;6.03;1.60;;;12.30;99.90;;;;;;5021312;28;20828;-39
2021/10/06 01:37:03;;;;;;;7.03;2.10;;;12.20;99.90;;;;;;5017280;28;20421;-39
2021/10/06 01:39:28;;;;;;;4.70;1.30;;;12.20;99.90;;;;;;5026604;28;20197;-39
2021/10/06 01:41:54;;;;;;;3.97;1.60;;;12.30;99.90;;;;;;5026760;28;20344;-39
2021/10/06 01:44:20;;;;;;;2.20;1.60;;;12.20;99.90;;;;;;5026269;28;20196;-42
2021/10/06 01:46:46;;;;;;;8.23;2.10;;;12.10;99.90;;;;;;5025269;28;20584;-39
2021/10/06 01:49:12;;;;;;;4.87;1.87;;;12.20;99.90;;;;;;5026596;28;20410;-40
2021/10/06 01:51:38;;;;;;;4.17;1.77;;;12.20;99.90;;;;;;5017589;28;20444;-43
2021/10/06 01:54:04;;;;;;;4.40;1.70;;;12.20;99.90;;;;;;5025436;28;20190;-39
2021/10/06 01:56:31;;;;;;;5.23;2.00;;;12.20;99.90;;;;;;5025911;28;20300;-40
2021/10/06 01:58:57;;;;;;;3.37;1.60;;;12.20;99.90;;;;;;5026170;28;20413;-40
2021/10/06 02:01:24;;;;;;;3.60;1.77;;;12.30;99.90;;;;;;5026294;28;20818;-39
2021/10/06 02:03:49;;;;;;;3.73;1.70;;;12.20;99.90;;;;;;5024319;28;20589;-39
2021/10/06 02:06:15;;;;;;;4.73;1.73;;;12.20;99.90;;;;;;5014395;28;20470;-39
2021/10/06 02:08:40;;;;;;;4.90;1.83;;;12.20;99.90;;;;;;5025916;28;20650;-40
2021/10/06 02:11:07;;;;;;;2.67;1.63;;;12.20;99.90;;;;;;5026314;28;20226;-39
2021/10/06 02:13:32;;;;;;;2.10;1.90;;;12.20;99.90;;;;;;5024735;28;20197;-39
2021/10/06 02:15:58;;;;;;;3.87;2.10;;;12.20;99.90;;;;;;5026019;28;20528;-41
2021/10/06 02:18:24;;;;;;;4.20;2.20;;;12.20;99.90;;;;;;5025900;28;20793;-39
2021/10/06 02:20:50;;;;;;;2.63;1.90;;;12.20;99.90;;;;;;5017510;28;20226;-40
2021/10/06 02:23:15;;;;;;;3.53;2.10;;;12.10;99.90;;;;;;5022189;28;20194;-39
2021/10/06 02:25:41;;;;;;;5.20;1.83;;;12.00;99.90;;;;;;5025589;28;20229;-39
2021/10/06 02:28:08;;;;;;;7.10;2.20;;;12.00;99.90;;;;;;5025567;28;20183;-41
2021/10/06 02:30:35;;;;;;;6.57;2.00;;;12.00;99.90;;;;;;5025631;28;20409;-40
2021/10/06 02:33:00;;;;;;;3.43;2.00;;;12.10;99.90;;;;;;5024889;28;20973;-39
2021/10/06 02:35:27;;;;;;;2.30;1.83;;;12.10;99.90;;;;;;5020183;28;20434;-39
2021/10/06 02:37:52;;;;;;;5.17;2.30;;;12.10;99.90;;;;;;5024341;28;20205;-39
2021/10/06 02:40:18;;;;;;;4.13;2.20;;;12.10;99.90;;;;;;5025161;28;20928;-40
2021/10/06 02:42:46;;;;;;;7.00;2.60;;;12.00;99.90;;;;;;5025172;28;20181;-39
2021/10/06 02:45:14;;;;;;;5.33;2.03;;;12.00;99.90;;;;;;5025617;28;20421;-40
2021/10/06 02:47:40;;;;;;;6.47;1.97;;;12.10;99.90;;;;;;5024080;28;20426;-39
2021/10/06 02:50:08;;;;;;;5.87;2.23;;;12.00;99.90;;;;;;5021633;28;20458;-40
2021/10/06 02:52:33;;;;;;;3.83;2.80;;;12.00;99.90;;;;;;5020749;28;20429;-39
2021/10/06 02:54:59;;;;;;;7.30;2.00;;;12.10;99.90;;;;;;5024767;28;20495;-40
2021/10/06 02:57:25;;;;;;;6.20;2.03;;;12.10;99.90;;;;;;5025438;28;20296;-39
2021/10/06 02:59:50;;;;;;;4.83;2.10;;;12.00;99.90;;;;;;5025459;28;20186;-39
2021/10/06 03:02:16;;;;;;;8.10;2.50;;;12.00;99.90;;;;;;5025356;28;20276;-39
2021/10/06 03:04:42;;;;;;;5.27;2.20;;;12.20;99.90;;;;;;5024980;28;20641;-39
2021/10/06 03:07:07;;;;;;;4.73;1.90;;;12.00;99.90;;;;;;5013908;28;20739;-39
2021/10/06 03:09:33;;;;;;;3.93;2.23;;;12.00;99.90;;;;;;5025223;28;20179;-39
2021/10/06 03:11:59;;;;;;;7.93;2.00;;;12.00;99.90;;;;;;5025501;28;20194;-40
2021/10/06 03:14:24;;;;;;;3.20;1.90;;;12.10;99.90;;;;;;5023492;28;20194;-39
2021/10/06 03:16:51;;;;;;;3.17;1.93;;;12.10;99.90;;;;;;5025495;28;20264;-40
2021/10/06 03:19:16;;;;;;;8.83;2.50;;;12.10;99.90;;;;;;5025565;28;20278;-40
2021/10/06 03:21:42;;;;;;;5.47;2.40;;;12.00;99.90;;;;;;5016759;28;20559;-39
2021/10/06 03:24:08;;;;;;;5.27;2.10;;;12.00;99.90;;;;;;5024316;28;20657;-43
2021/10/06 03:26:34;;;;;;;5.43;2.33;;;12.30;99.90;;;;;;5025468;28;20186;-39
2021/10/06 03:28:59;;;;;;;8.27;2.47;;;12.10;99.90;;;;;;5025300;28;20213;-39
2021/10/06 03:31:25;;;;;;;8.20;2.20;;;12.20;99.90;;;;;;5025141;28;20892;-40
2021/10/06 03:33:51;;;;;;;8.80;2.77;;;12.10;99.90;;;;;;5024656;28;20467;-39
2021/10/06 03:36:17;;;;;;;8.67;2.23;;;12.10;99.90;;;;;;5017708;28;20203;-40
2021/10/06 03:38:42;;;;;;;6.10;3.53;;;12.10;99.90;;;;;;5024890;28;20423;-39
2021/10/06 03:41:08;;;;;;;2.60;2.30;;;12.10;99.90;;;;;;5025361;28;20252;-41
2021/10/06 03:43:34;;;;;;;6.67;2.60;;;12.10;99.90;;;;;;5027283;28;20193;-40
2021/10/06 03:46:00;;;;;;;6.43;1.93;;;12.10;99.90;;;;;;5027376;28;20820;-39
2021/10/06 03:48:25;;;;;;;5.03;1.80;;;12.20;99.90;;;;;;5026966;28;20190;-39
2021/10/06 03:50:51;;;;;;;7.57;2.10;;;12.20;99.90;;;;;;5025043;28;20444;-40
2021/10/06 03:53:17;;;;;;;5.97;1.77;;;12.20;99.90;;;;;;5017340;28;20187;-39
2021/10/06 03:55:42;;;;;;;3.30;2.30;;;12.20;99.90;;;;;;5028807;28;20336;-39
2021/10/06 03:58:08;;;;;;;2.70;1.70;;;12.20;99.90;;;;;;5028365;28;20198;-39
2021/10/06 04:00:35;;;;;;;6.97;2.00;;;12.20;99.90;;;;;;5028578;28;20726;-39
2021/10/06 04:03:00;;;;;;;5.17;2.27;;;12.20;99.90;;;;;;5028026;28;20178;-39
2021/10/06 04:05:26;;;;;;;6.10;1.77;;;12.30;99.90;;;;;;5026837;28;20939;-39
2021/10/06 04:07:52;;;;;;;4.30;1.87;;;12.30;99.90;;;;;;5019709;28;20201;-39
2021/10/06 04:10:17;;;;;;;3.13;1.87;;;12.30;99.90;;;;;;5026814;28;20194;-39
2021/10/06 04:12:43;;;;;;;4.33;2.20;;;12.30;99.90;;;;;;5027912;28;20425;-39
2021/10/06 04:15:09;;;;;;;6.20;2.13;;;12.30;99.90;;;;;;5007314;28;20222;-40
2021/10/06 04:17:35;;;;;;;5.63;2.07;;;12.20;99.90;;;;;;5018693;28;20229;-39
2021/10/06 04:20:01;;;;;;;3.40;1.50;;;12.30;99.90;;;;;;5031991;28;20460;-40
2021/10/06 04:22:26;;;;;;;5.33;1.80;;;12.20;99.90;;;;;;5016497;28;20299;-39
2021/10/06 04:24:52;;;;;;;3.60;1.70;;;12.30;99.90;;;;;;5009450;28;20255;-39
2021/10/06 04:27:18;;;;;;;3.07;1.87;;;12.60;99.90;;;;;;5028256;28;20301;-39
2021/10/06 04:29:43;;;;;;;5.00;2.17;;;12.40;99.90;;;;;;5027932;28;20190;-39
2021/10/06 04:32:09;;;;;;;3.27;1.93;;;12.40;99.90;;;;;;5027971;28;20186;-39
2021/10/06 04:34:35;;;;;;;3.20;1.73;;;12.30;99.90;;;;;;5027247;28;20229;-41
2021/10/06 04:37:00;;;;;;;3.40;1.97;;;12.30;99.90;;;;;;5018234;28;20245;-40
2021/10/06 04:39:26;;;;;;;2.53;1.80;;;12.20;99.90;;;;;;5026098;28;20210;-40
2021/10/06 04:41:51;;;;;;;4.10;2.00;;;12.30;99.90;;;;;;5027583;28;20845;-39
2021/10/06 04:44:17;;;;;;;5.77;2.20;;;12.30;99.90;;;;;;5025843;28;20564;-39
2021/10/06 04:46:43;;;;;;;5.13;2.80;;;12.40;99.90;;;;;;5026261;28;20175;-39
2021/10/06 04:49:09;;;;;;;5.40;3.20;;;12.40;99.90;;;;;;5027646;28;20186;-41
2021/10/06 04:51:35;;;;;;;3.70;2.00;;;12.40;99.90;;;;;;5021412;28;20731;-39
2021/10/06 04:54:00;;;;;;;3.53;2.03;;;12.40;99.90;;;;;;5022764;28;20422;-40
2021/10/06 04:56:26;;;;;;;4.30;2.20;;;12.40;99.90;;;;;;5027340;28;20471;-40
2021/10/06 04:58:52;;;;;;;6.63;2.20;;;12.30;99.90;;;;;;5027363;28;20557;-40
2021/10/06 05:01:17;;;;;;;4.27;2.30;;;12.40;99.90;;;;;;5027114;28;20206;-39
2021/10/06 05:03:43;;;;;;;4.00;2.77;;;12.40;99.90;;;;;;5026490;28;20213;-40
2021/10/06 05:06:09;;;;;;;3.03;1.83;;;12.40;99.90;;;;;;5022958;28;20693;-39
2021/10/06 05:08:35;;;;;;;2.83;1.97;;;12.40;99.90;;;;;;5020383;28;20982;-39
2021/10/06 05:11:01;;;;;;;6.53;2.07;;;12.30;99.90;;;;;;5027090;28;20193;-39
2021/10/06 05:13:26;;;;;;;2.10;1.67;;;12.30;99.90;;;;;;5024939;28;20190;-40
2021/10/06 05:15:52;;;;;;;3.73;1.93;;;12.30;99.90;;;;;;5027131;28;20209;-39
2021/10/06 05:18:18;;;;;;;7.23;2.30;;;12.30;99.90;;;;;;5026797;28;20197;-41
2021/10/06 05:20:43;;;;;;;5.20;2.17;;;12.30;99.90;;;;;;5026578;28;20719;-40
2021/10/06 05:23:09;;;;;;;3.13;1.80;;;12.30;99.90;;;;;;5014845;28;20197;-39
2021/10/06 05:25:37;;;;;;;6.70;1.70;;;12.30;99.90;;;;;;5026983;28;20186;-40
2021/10/06 05:28:03;;;;;;;3.67;2.17;;;12.30;99.90;;;;;;5025292;28;20444;-40
2021/10/06 05:30:29;;;;;;;2.73;1.60;;;12.30;99.90;;;;;;5026948;28;20476;-40
2021/10/06 05:32:55;;;;;;;6.83;1.97;;;12.30;99.90;;;;;;5026308;28;20429;-39
2021/10/06 05:35:20;;;;;;;5.83;1.80;;;12.30;99.90;;;;;;5026617;28;20543;-39
2021/10/06 05:37:47;;;;;;;2.53;1.70;;;12.30;99.90;;;;;;5017091;28;20191;-39
2021/10/06 05:40:14;;;;;;;3.60;1.70;;;12.30;99.90;;;;;;5027022;28;20207;-39
2021/10/06 05:42:39;;;;;;;3.10;1.80;;;12.30;99.90;;;;;;5026574;28;20469;-39
2021/10/06 05:45:06;;;;;;;4.43;2.23;;;12.40;99.90;;;;;;5026002;28;20818;-40
2021/10/06 05:47:31;;;;;;;3.77;1.90;;;12.30;99.90;;;;;;5024870;28;20210;-39
2021/10/06 05:49:58;;;;;;;3.43;1.50;;;12.30;99.90;;;;;;5026092;28;20464;-43
2021/10/06 05:52:24;;;;;;;4.33;2.30;;;12.30;99.90;;;;;;5016949;28;20191;-39
2021/10/06 05:54:49;;;;;;;4.97;1.83;;;12.30;99.90;;;;;;5025510;28;20428;-40
2021/10/06 05:57:15;;;;;;;3.57;1.80;;;12.30;99.90;;;;;;5026095;28;20280;-39
2021/10/06 05:59:41;;;;;;;3.00;1.60;;;12.40;99.90;;;;;;5026174;28;20767;-39
2021/10/06 06:02:07;;;;;;;4.70;1.73;;;12.40;99.90;;;;;;5025973;28;20361;-39
2021/10/06 06:04:32;;;;;;;7.50;2.00;;;12.40;99.90;;;;;;5025292;28;20248;-40
2021/10/06 06:06:58;;;;;;;4.70;1.83;;;12.40;99.90;;;;;;5019721;28;20437;-39
2021/10/06 06:09:25;;;;;;;3.23;1.73;;;12.40;99.90;;;;;;5015988;28;20197;-40
2021/10/06 06:11:51;;;;;;;4.20;1.60;;;12.30;99.90;;;;;;5026283;28;20428;-40
2021/10/06 06:14:18;;;;;;;5.03;2.07;;;12.50;99.90;;;;;;5025682;28;20682;-39
2021/10/06 06:16:44;;;;;;;3.10;1.83;;;12.40;99.90;;;;;;5025949;28;20453;-40
2021/10/06 06:19:09;;;;;;;3.23;1.40;;;12.50;99.90;;;;;;5025760;28;20421;-40
2021/10/06 06:21:35;;;;;;;5.10;1.97;;;12.40;99.90;;;;;;5036508;28;20484;-39
2021/10/06 06:24:01;;;;;;;3.47;1.87;;;12.40;99.90;;;;;;5014544;28;20320;-39
2021/10/06 06:26:27;;;;;;;4.07;2.10;;;12.40;99.90;;;;;;5025686;28;20190;-40
2021/10/06 06:28:52;;;;;;;4.83;2.17;;;12.40;99.90;;;;;;5026007;28;20241;-40
2021/10/06 06:31:18;;;;;;;2.90;1.70;;;12.40;99.90;;;;;;5025653;28;20855;-41
2021/10/06 06:33:45;;;;;;;3.23;2.03;;;12.40;99.90;;;;;;5023724;28;20704;-39
2021/10/06 06:36:11;;;;;;;7.03;2.30;;;12.40;99.90;;;;;;5025690;28;20459;-39
2021/10/06 06:38:37;;;;;;;2.60;1.70;;;12.40;99.90;;;;;;5017524;28;20425;-39
2021/10/06 06:41:03;;;;;;;2.80;1.63;;;12.50;99.90;;;;;;5025501;28;20210;-39
2021/10/06 06:43:30;;;;;;;6.50;1.70;;;12.40;99.90;;;;;;5024948;28;20198;-39
2021/10/06 06:45:56;;;;;;;5.70;2.13;;;12.40;99.90;;;;;;5024987;28;20421;-40
2021/10/06 06:48:22;;;;;;;4.80;2.07;;;12.30;99.90;;;;;;5024581;28;20421;-39
2021/10/06 06:50:52;;;;;;;7.00;1.80;;;12.40;99.90;;;;;;5025777;28;20432;-40
2021/10/06 06:53:21;;;;;;;3.83;2.27;;;12.40;99.90;;;;;;5013653;28;20438;-42
2021/10/06 06:55:47;;;;;;;4.10;1.93;;;12.40;99.90;;;;;;5025574;28;20425;-40
2021/10/06 06:58:13;;;;;;;8.67;3.10;;;12.50;99.90;;;;;;5025729;28;20503;-39
2021/10/06 07:00:39;;;;;;;3.80;2.17;;;12.50;99.90;;;;;;5025328;28;20784;-40
2021/10/06 07:03:04;;;;;;;4.83;2.00;;;12.50;99.90;;;;;;5024794;28;20421;-39
2021/10/06 07:05:30;;;;;;;5.90;2.30;;;12.50;99.90;;;;;;5025565;28;20685;-39
2021/10/06 07:07:56;;;;;;;3.57;2.10;;;12.50;99.90;;;;;;5022561;28;20190;-39
2021/10/06 07:10:22;;;;;;;3.50;2.10;;;12.40;99.90;;;;;;5023629;28;20183;-40
2021/10/06 07:12:49;;;;;;;5.07;2.97;;;12.30;99.90;;;;;;5025077;28;20179;-39
2021/10/06 07:15:15;;;;;;;7.70;2.73;;;12.30;99.90;;;;;;5025148;28;20186;-40
2021/10/06 07:17:41;;;;;;;4.40;2.07;;;12.30;99.90;;;;;;5027115;28;20432;-39
2021/10/06 07:20:07;;;;;;;4.03;2.10;;;12.30;99.90;;;;;;5033640;28;20443;-39
2021/10/06 07:22:33;;;;;;;7.80;2.70;;;12.20;99.90;;;;;;5034436;28;20269;-40
2021/10/06 07:25:00;;;;;;;3.83;2.60;;;12.20;99.90;;;;;;5026476;28;20492;-42
2021/10/06 07:27:25;;;;;;;5.47;2.20;;;12.20;99.90;;;;;;5029186;28;20205;-39
2021/10/06 07:29:51;;;;;;;4.53;2.37;;;12.10;99.90;;;;;;5028783;28;20413;-39
2021/10/06 07:32:17;;;;;;;5.73;3.30;;;12.10;99.90;;;;;;5029146;28;20194;-39
2021/10/06 07:34:42;;;;;;;4.03;2.43;;;12.20;99.90;;;;;;5028219;28;20182;-39
2021/10/06 07:37:08;;;;;;;2.90;2.17;;;12.00;99.90;;;;;;5025462;28;20205;-39
2021/10/06 07:39:34;;;;;;;3.10;2.80;;;12.10;99.90;;;;;;5023975;28;20174;-40
2021/10/06 07:42:00;;;;;;;2.80;1.93;;;12.10;99.90;;;;;;5028937;28;20240;-40
2021/10/06 07:44:25;;;;;;;6.23;2.53;;;12.20;99.90;;;;;;5009254;28;20193;-40
2021/10/06 07:46:51;;;;;;;4.40;2.07;;;12.20;99.90;;;;;;5020141;28;20182;-40
2021/10/06 07:49:17;;;;;;;2.63;1.87;;;12.20;99.90;;;;;;5027312;28;20175;-40
2021/10/06 07:51:43;;;;;;;3.87;1.93;;;12.20;99.90;;;;;;5028946;28;20190;-39
2021/10/06 07:54:09;;;;;;;4.43;1.93;;;12.40;99.90;;;;;;5018707;28;20520;-40
2021/10/06 07:56:35;;;;;;;3.63;1.67;;;12.20;99.90;;;;;;5026999;28;20433;-39
2021/10/06 07:59:00;;;;;;;2.90;1.77;;;12.20;99.90;;;;;;5028374;28;20191;-39
2021/10/06 08:01:26;;;;;;;5.23;2.10;;;12.20;99.90;;;;;;5028417;28;20236;-39
2021/10/06 08:03:52;;;;;;;4.00;1.90;;;12.20;99.90;;;;;;5027896;28;20221;-40
2021/10/06 08:06:18;;;;;;;5.03;1.60;;;12.40;99.90;;;;;;5028708;28;20226;-39
2021/10/06 08:08:44;;;;;;;5.77;1.90;;;12.20;99.90;;;;;;5017360;28;20186;-39
2021/10/06 08:11:10;;;;;;;5.30;4.43;;;12.20;99.90;;;;;;5028029;28;20922;-39
2021/10/06 08:13:35;;;;;;;4.50;1.80;;;12.20;99.90;;;;;;5027138;28;20653;-39
2021/10/06 08:16:01;;;;;;;5.90;1.77;;;12.20;99.90;;;;;;5027163;28;20202;-39
2021/10/06 08:18:26;;;;;;;3.37;1.60;;;12.30;99.90;;;;;;5027922;28;20201;-40
2021/10/06 08:20:53;;;;;;;4.90;2.17;;;12.30;99.90;;;;;;5038683;28;20256;-39
2021/10/06 08:23:20;;;;;;;7.40;2.10;;;12.30;99.90;;;;;;5028515;28;20210;-41
2021/10/06 08:25:47;;;;;;;4.20;1.90;;;12.50;99.90;;;;;;5027872;28;20425;-39
2021/10/06 08:28:14;;;;;;;3.33;2.07;;;12.40;99.90;;;;;;5027150;28;20429;-39
2021/10/06 08:30:40;;;;;;;3.57;1.90;;;12.30;99.90;;;;;;5027843;28;20421;-39
2021/10/06 08:33:06;;;;;;;3.33;1.90;;;12.40;99.90;;;;;;5027101;28;20619;-39
2021/10/06 08:35:32;;;;;;;4.17;2.20;;;12.30;99.90;;;;;;5027592;28;20486;-39
2021/10/06 08:37:58;;;;;;;5.13;2.10;;;12.30;99.90;;;;;;5022374;28;20429;-39
2021/10/06 08:40:24;;;;;;;3.33;1.83;;;12.40;99.90;;;;;;5025533;28;20198;-39
2021/10/06 08:42:50;;;;;;;3.77;2.10;;;12.40;99.90;;;;;;5026685;28;20214;-39
2021/10/06 08:45:16;;;;;;;3.67;2.00;;;12.40;99.90;;;;;;5028113;28;20217;-39
2021/10/06 08:47:43;;;;;;;4.20;2.27;;;12.40;99.90;;;;;;5024873;28;20462;-39
2021/10/06 08:50:14;;;;;;;6.73;2.17;;;12.50;99.90;;;;;;5027799;28;20513;-39
2021/10/06 08:52:40;;;;;;;3.90;2.17;;;12.20;99.90;;;;;;5023244;28;20489;-39
2021/10/06 08:55:07;;;;;;;4.70;2.27;;;12.30;99.90;;;;;;5019093;28;20429;-39
2021/10/06 08:57:34;;;;;;;2.20;1.57;;;12.20;99.90;;;;;;5025674;28;20977;-40
2021/10/06 08:59:59;;;;;;;4.23;2.00;;;12.20;99.90;;;;;;5027467;28;20440;-47
2021/10/06 09:02:25;;;;;;;2.53;2.00;;;12.20;99.90;;;;;;5027400;28;20456;-39
2021/10/06 09:04:51;;;;;;;4.57;2.13;;;12.30;99.90;;;;;;5026924;28;20236;-40
2021/10/06 09:07:17;;;;;;;2.50;1.87;;;12.20;99.90;;;;;;5027510;28;20519;-40
2021/10/06 09:09:43;;;;;;;4.17;1.70;;;12.00;99.90;;;;;;5012570;28;20656;-39
2021/10/06 09:12:16;;;;;;;4.57;1.73;;;12.20;99.90;;;;;;5027306;28;20434;-40
2021/10/06 09:14:44;;;;;;;4.07;1.67;;;12.20;99.90;;;;;;5026582;28;20508;-39
2021/10/06 09:17:15;;;;;;;7.10;2.20;;;12.30;99.90;;;;;;5027406;28;20421;-41
2021/10/06 09:19:49;;;;;;;4.80;2.23;;;12.30;99.90;;;;;;5026900;28;20516;-40
2021/10/06 09:22:17;;;;;;;3.57;1.90;;;12.30;99.90;;;;;;5035895;28;20462;-39
2021/10/06 09:25:02;;;;;;;5.80;2.20;;;12.30;99.90;;;;;;5014613;28;20837;-40
2021/10/06 09:27:30;;;;;;;3.03;1.90;;;12.50;99.90;;;;;;5026948;28;20428;-39
2021/10/06 09:30:04;;;;;;;4.50;2.10;;;12.20;99.90;;;;;;5027093;28;20763;-39
2021/10/06 09:32:37;;;;;;;2.50;2.30;;;12.30;99.90;;;;;;5026699;28;21144;-40
2021/10/06 09:35:06;;;;;;;2.53;1.93;;;12.30;99.90;;;;;;5026559;28;20425;-40
2021/10/06 09:37:32;;;;;;;5.10;2.17;;;12.30;99.90;;;;;;5025583;28;20421;-40
2021/10/06 09:39:58;;;;;;;4.47;1.90;;;12.40;99.90;;;;;;5016851;28;20421;-40
2021/10/06 09:42:24;;;;;;;5.80;2.40;;;12.30;99.90;;;;;;5026526;28;20518;-40
2021/10/06 09:44:55;;;;;;;4.20;2.20;;;12.30;99.90;;;;;;5026531;28;20193;-40
2021/10/06 09:47:21;;;;;;;5.03;1.90;;;12.30;99.90;;;;;;5024730;28;20174;-39
2021/10/06 09:49:56;;;;;;;3.83;2.27;;;12.30;99.90;;;;;;5026689;28;20421;-40
2021/10/06 09:52:32;;;;;;;5.73;2.50;;;12.30;99.90;;;;;;5026718;28;20431;-39
2021/10/06 09:55:03;;;;;;;7.73;2.50;;;12.20;99.90;;;;;;5016578;28;20437;-39
2021/10/06 09:57:37;;;;;;;5.70;2.13;;;12.30;99.90;;;;;;5025979;28;20593;-43
2021/10/06 10:00:06;;;;;;;4.33;2.40;;;12.20;99.90;;;;;;5026246;28;20433;-40
2021/10/06 10:02:33;;;;;;;5.43;3.07;;;12.20;99.90;;;;;;5026654;28;20931;-40
2021/10/06 10:04:58;;;;;;;3.47;2.40;;;12.20;99.90;;;;;;5025806;28;20465;-40
2021/10/06 10:07:25;;;;;;;4.90;2.60;;;12.30;99.90;;;;;;5026079;28;20468;-40
2021/10/06 10:09:51;;;;;;;5.23;2.90;;;12.10;99.90;;;;;;5013991;28;20269;-40
2021/10/06 10:12:22;;;;;;;3.67;2.20;;;12.20;99.90;;;;;;5025982;28;20672;-40
2021/10/06 10:14:49;;;;;;;8.33;2.33;;;12.40;99.90;;;;;;5025415;28;20429;-39
2021/10/06 10:17:16;;;;;;;6.13;2.30;;;12.30;99.90;;;;;;5026500;28;20425;-39
2021/10/06 10:19:44;;;;;;;5.07;2.40;;;12.40;99.90;;;;;;5026844;28;20421;-39
2021/10/06 10:22:11;;;;;;;6.00;2.17;;;12.30;99.90;;;;;;5045975;28;20576;-39
2021/10/06 10:24:45;;;;;;;4.57;2.23;;;12.40;99.90;;;;;;5019145;28;20513;-40
2021/10/06 10:27:13;;;;;;;5.23;2.37;;;12.30;99.90;;;;;;5025907;28;20419;-39
2021/10/06 10:29:46;;;;;;;4.90;2.53;;;12.60;99.90;;;;;;5025991;28;20965;-39
2021/10/06 10:32:18;;;;;;;5.90;3.70;;;12.30;99.90;;;;;;5026057;28;20472;-39
2021/10/06 10:35:00;;;;;;;3.57;2.60;;;12.30;99.90;;;;;;5024864;28;20417;-39
2021/10/06 10:37:53;;;;;;;2.93;1.80;;;12.50;99.90;;;;;;5025685;28;20421;-40
2021/10/06 10:40:33;;;;;;;4.17;1.60;;;12.30;99.90;;;;;;5017591;28;20429;-39
2021/10/06 10:43:20;;;;;;;2.77;1.77;;;12.30;99.90;;;;;;5024930;28;20513;-39
2021/10/06 10:45:51;;;;;;;2.60;1.97;;;12.50;99.90;;;;;;5025321;28;20413;-39
2021/10/06 10:48:20;;;;;;;1.97;1.87;;;12.30;99.90;;;;;;5023183;28;20433;-40
2021/10/06 10:50:46;;;;;;;2.43;2.23;;;12.30;99.90;;;;;;5025634;28;20414;-39
2021/10/06 10:53:16;;;;;;;3.17;2.07;;;12.30;99.90;;;;;;5025949;28;20440;-40
2021/10/06 10:55:46;;;;;;;5.20;1.90;;;12.30;99.90;;;;;;5025877;28;20325;-39
2021/10/06 10:58:35;;;;;;;4.80;2.20;;;12.30;99.90;;;;;;5029415;28;20476;-40
2021/10/06 11:01:04;;;;;;;5.30;2.40;;;12.30;99.90;;;;;;5016226;28;20482;-40
2021/10/06 11:03:30;;;;;;;3.03;2.30;;;12.30;99.90;;;;;;5028905;28;20456;-40
2021/10/06 11:05:57;;;;;;;3.10;2.23;;;12.40;99.90;;;;;;5029577;28;20911;-39
2021/10/06 11:08:26;;;;;;;2.97;1.90;;;12.40;99.90;;;;;;5027384;28;20453;-39
2021/10/06 11:11:10;;;;;;;4.47;2.17;;;12.20;99.90;;;;;;5017942;28;20460;-39
2021/10/06 11:13:44;;;;;;;2.43;2.10;;;12.40;99.90;;;;;;5028627;28;20435;-40
2021/10/06 11:16:11;;;;;;;3.97;2.57;;;12.40;99.90;;;;;;5029692;28;20420;-40
2021/10/06 11:18:51;;;;;;;3.37;2.40;;;12.40;99.90;;;;;;5028116;28;20487;-39
2021/10/06 11:21:40;;;;;;;2.93;2.23;;;12.60;99.90;;;;;;5029478;28;20946;-39
2021/10/06 11:24:23;;;;;;;3.00;2.37;;;12.40;99.90;;;;;;5034173;28;20449;-40
2021/10/06 11:26:57;;;;;;;3.10;2.30;;;12.60;99.90;;;;;;5028598;28;20439;-39
2021/10/06 11:29:24;;;;;;;3.10;2.20;;;12.60;99.90;;;;;;5028646;28;20852;-39
2021/10/06 11:31:49;;;;;;;3.10;2.30;;;12.70;99.90;;;;;;5028870;28;20899;-40
2021/10/06 11:34:19;;;;;;;2.73;1.90;;;12.60;99.90;;;;;;5027018;28;20425;-40
2021/10/06 11:36:53;;;;;;;1.70;1.60;;;12.60;99.90;;;;;;5028993;28;20201;-40
2021/10/06 11:39:20;;;;;;;1.80;1.70;;;12.60;99.90;;;;;;5022474;28;20496;-39
2021/10/06 11:41:48;;;;;;;1.90;1.80;;;12.70;99.90;;;;;;5021925;28;20459;-39
2021/10/06 11:44:33;;;;;;;2.00;1.90;;;12.50;99.90;;;;;;5028004;28;20429;-39
2021/10/06 11:47:03;;;;;;;5.43;1.97;;;12.50;99.90;;;;;;5027111;28;20455;-39
2021/10/06 11:49:29;;;;;;;3.47;2.20;;;12.50;99.90;;;;;;5028715;28;20565;-40
2021/10/06 11:51:55;;;;;;;2.50;1.80;;;12.50;99.90;;;;;;5028736;28;20528;-39
2021/10/06 11:54:25;;;;;;;2.33;2.13;;;12.60;99.90;;;;;;5020756;28;20994;-40
2021/10/06 11:57:03;;;;;;;2.43;1.90;;;12.50;99.90;;;;;;5022844;28;20198;-40
2021/10/06 11:59:30;;;;;;;2.10;1.90;;;12.50;99.90;;;;;;5027367;28;20494;-39
2021/10/06 12:02:00;;;;;;;2.20;1.87;;;12.60;99.90;;;;;;5028656;28;20464;-41
2021/10/06 12:04:28;;;;;;;2.17;1.70;;;12.60;99.90;;;;;;5027588;28;20421;-39
2021/10/06 12:07:00;;;;;;;1.80;1.70;;;12.60;99.90;;;;;;5028570;28;20888;-39
2021/10/06 12:09:35;;;;;;;3.33;2.03;;;12.70;99.90;;;;;;5021953;28;20438;-39
2021/10/06 12:12:01;;;;;;;1.70;1.60;;;12.80;99.90;;;;;;5026990;28;20412;-39
2021/10/06 12:14:32;;;;;;;1.97;1.77;;;12.80;99.90;;;;;;5027763;28;20795;-40
2021/10/06 12:17:03;;;;;;;1.90;1.80;;;12.80;99.90;;;;;;5028848;28;20431;-39
2021/10/06 12:19:29;;;;;;;2.00;1.77;;;12.40;99.90;;;;;;5027627;28;20429;-39
2021/10/06 12:21:55;;;;;;;2.30;2.10;;;12.80;99.90;;;;;;5034466;28;20534;-40
2021/10/06 12:24:24;;;;;;;2.20;2.00;;;12.70;99.90;;;;;;5035153;28;20245;-39
2021/10/06 12:26:51;;;;;;;2.67;2.43;;;12.70;99.90;;;;;;5025242;28;20587;-39
2021/10/06 12:29:24;;;;;;;3.27;2.43;;;12.70;99.90;;;;;;5027825;28;20414;-39
2021/10/06 12:31:55;;;;;;;2.53;2.33;;;12.60;99.90;;;;;;5028033;28;20869;-39
2021/10/06 12:34:24;;;;;;;2.73;2.53;;;12.50;99.90;;;;;;5027234;28;20920;-40
2021/10/06 12:36:55;;;;;;;3.47;2.80;;;12.60;99.90;;;;;;5028309;28;20955;-40
2021/10/06 12:39:26;;;;;;;2.93;2.30;;;12.60;99.90;;;;;;5024592;28;20425;-39
2021/10/06 12:41:55;;;;;;;2.20;2.00;;;12.60;99.90;;;;;;5021100;28;20520;-39
2021/10/06 12:44:35;;;;;;;2.23;2.03;;;12.60;99.90;;;;;;5026875;28;20499;-39
2021/10/06 12:47:01;;;;;;;2.93;2.33;;;12.70;99.90;;;;;;5026583;28;20428;-39
2021/10/06 12:49:29;;;;;;;3.13;2.70;;;12.70;99.90;;;;;;5027731;28;20421;-40